sensor_id;sensor_type;location;lat;lon;timestamp;pressure;altitude;pressure_sealevel;temperature;humidity
54600;BME280;40500;51.084;16.958;2023-04-16T00:00:23;100037.25;;;8.16;100.00
54600;BME280;40500;51.084;16.958;2023-04-16T00:02:53;100038.69;;;8.13;100.00
54600;BME280;40500;51.084;16.958;2023-04-16T00:05:24;100034.20;;;8.09;100.00
54600;BME280;40500;51.084;16.958;2023-04-16T00:07:55;100036.14;;;8.07;100.00
54600;BME280;40500;51.084;16.958;2023-04-16T00:10:25;100039.46;;;8.05;100.00
54600;BME280;40500;51.084;16.958;2023-04-16T00:12:56;100039.87;;;8.01;100.00
54600;BME280;40500;51.084;16.958;2023-04-16T00:15:26;100049.84;;;7.99;100.00
54600;BME280;40500;51.084;16.958;2023-04-16T00:17:57;100046.02;;;7.97;100.00
54600;BME280;40500;51.084;16.958;2023-04-16T00:20:28;100046.55;;;7.95;100.00
54600;BME280;40500;51.084;16.958;2023-04-16T00:22:59;100042.06;;;7.91;100.00
54600;BME280;40500;51.084;16.958;2023-04-16T00:25:29;100044.20;;;7.88;100.00
54600;BME280;40500;51.084;16.958;2023-04-16T00:28:00;100041.08;;;7.85;100.00
54600;BME280;40500;51.084;16.958;2023-04-16T00:30:32;100041.13;;;7.81;100.00
54600;BME280;40500;51.084;16.958;2023-04-16T00:33:02;100042.21;;;7.78;100.00
54600;BME280;40500;51.084;16.958;2023-04-16T00:35:33;100039.45;;;7.75;100.00
54600;BME280;40500;51.084;16.958;2023-04-16T00:38:04;100031.83;;;7.69;100.00
54600;BME280;40500;51.084;16.958;2023-04-16T00:40:34;100034.49;;;7.65;100.00
54600;BME280;40500;51.084;16.958;2023-04-16T00:43:04;100032.81;;;7.60;100.00
54600;BME280;40500;51.084;16.958;2023-04-16T00:45:35;100035.46;;;7.55;100.00
54600;BME280;40500;51.084;16.958;2023-04-16T00:48:06;100038.80;;;7.52;100.00
54600;BME280;40500;51.084;16.958;2023-04-16T00:50:36;100045.13;;;7.47;100.00
54600;BME280;40500;51.084;16.958;2023-04-16T00:53:07;100044.98;;;7.44;100.00
54600;BME280;40500;51.084;16.958;2023-04-16T00:55:39;100053.89;;;7.40;100.00
54600;BME280;40500;51.084;16.958;2023-04-16T00:58:10;100052.52;;;7.37;100.00
54600;BME280;40500;51.084;16.958;2023-04-16T01:00:40;100045.59;;;7.32;100.00
54600;BME280;40500;51.084;16.958;2023-04-16T01:03:11;100045.81;;;7.28;100.00
54600;BME280;40500;51.084;16.958;2023-04-16T01:05:42;100047.40;;;7.25;100.00
54600;BME280;40500;51.084;16.958;2023-04-16T01:08:17;100048.29;;;7.21;100.00
54600;BME280;40500;51.084;16.958;2023-04-16T01:10:48;100051.44;;;7.20;100.00
54600;BME280;40500;51.084;16.958;2023-04-16T01:13:18;100047.47;;;7.16;100.00
54600;BME280;40500;51.084;16.958;2023-04-16T01:15:49;100052.36;;;7.13;100.00
54600;BME280;40500;51.084;16.958;2023-04-16T01:18:20;100054.99;;;7.09;100.00
54600;BME280;40500;51.084;16.958;2023-04-16T01:20:52;100057.47;;;7.05;100.00
54600;BME280;40500;51.084;16.958;2023-04-16T01:23:22;100063.23;;;7.02;100.00
54600;BME280;40500;51.084;16.958;2023-04-16T01:25:53;100063.60;;;7.00;100.00
54600;BME280;40500;51.084;16.958;2023-04-16T01:28:24;100062.39;;;6.98;100.00
54600;BME280;40500;51.084;16.958;2023-04-16T01:30:54;100061.36;;;6.96;100.00
54600;BME280;40500;51.084;16.958;2023-04-16T01:33:53;100063.66;;;6.92;100.00
54600;BME280;40500;51.084;16.958;2023-04-16T01:36:25;100067.67;;;6.88;100.00
54600;BME280;40500;51.084;16.958;2023-04-16T01:38:56;100071.04;;;6.80;100.00
54600;BME280;40500;51.084;16.958;2023-04-16T01:41:28;100071.08;;;6.73;100.00
54600;BME280;40500;51.084;16.958;2023-04-16T01:43:58;100074.77;;;6.69;100.00
54600;BME280;40500;51.084;16.958;2023-04-16T01:46:31;100076.15;;;6.68;100.00
54600;BME280;40500;51.084;16.958;2023-04-16T01:49:02;100076.34;;;6.64;100.00
54600;BME280;40500;51.084;16.958;2023-04-16T01:51:33;100077.05;;;6.61;100.00
54600;BME280;40500;51.084;16.958;2023-04-16T01:54:05;100079.34;;;6.57;100.00
54600;BME280;40500;51.084;16.958;2023-04-16T01:56:35;100079.00;;;6.54;100.00
54600;BME280;40500;51.084;16.958;2023-04-16T01:59:06;100077.80;;;6.51;100.00
54600;BME280;40500;51.084;16.958;2023-04-16T02:01:40;100077.98;;;6.49;100.00
54600;BME280;40500;51.084;16.958;2023-04-16T02:04:12;100080.25;;;6.45;100.00
54600;BME280;40500;51.084;16.958;2023-04-16T02:06:42;100082.36;;;6.42;100.00
54600;BME280;40500;51.084;16.958;2023-04-16T02:09:15;100080.45;;;6.40;100.00
54600;BME280;40500;51.084;16.958;2023-04-16T02:11:45;100084.45;;;6.39;100.00
54600;BME280;40500;51.084;16.958;2023-04-16T02:14:16;100084.64;;;6.36;100.00
54600;BME280;40500;51.084;16.958;2023-04-16T02:16:47;100085.00;;;6.33;100.00
54600;BME280;40500;51.084;16.958;2023-04-16T02:19:35;100084.31;;;6.31;100.00
54600;BME280;40500;51.084;16.958;2023-04-16T02:22:06;100085.36;;;6.30;100.00
54600;BME280;40500;51.084;16.958;2023-04-16T02:24:37;100081.90;;;6.28;100.00
54600;BME280;40500;51.084;16.958;2023-04-16T02:27:09;100083.11;;;6.26;100.00
54600;BME280;40500;51.084;16.958;2023-04-16T02:29:40;100083.47;;;6.23;100.00
54600;BME280;40500;51.084;16.958;2023-04-16T02:32:14;100090.44;;;6.21;100.00
54600;BME280;40500;51.084;16.958;2023-04-16T02:34:46;100087.84;;;6.19;100.00
54600;BME280;40500;51.084;16.958;2023-04-16T02:37:17;100092.02;;;6.19;100.00
54600;BME280;40500;51.084;16.958;2023-04-16T02:39:47;100093.76;;;6.17;100.00
54600;BME280;40500;51.084;16.958;2023-04-16T02:42:18;100095.32;;;6.14;100.00
54600;BME280;40500;51.084;16.958;2023-04-16T02:44:49;100097.06;;;6.13;100.00
54600;BME280;40500;51.084;16.958;2023-04-16T02:47:19;100102.29;;;6.12;100.00
54600;BME280;40500;51.084;16.958;2023-04-16T02:49:51;100105.41;;;6.10;100.00
54600;BME280;40500;51.084;16.958;2023-04-16T02:52:21;100112.02;;;6.09;100.00
54600;BME280;40500;51.084;16.958;2023-04-16T02:54:51;100111.51;;;6.09;100.00
54600;BME280;40500;51.084;16.958;2023-04-16T02:57:22;100110.48;;;6.07;100.00
54600;BME280;40500;51.084;16.958;2023-04-16T02:59:52;100116.90;;;6.04;100.00
54600;BME280;40500;51.084;16.958;2023-04-16T03:02:23;100120.55;;;5.99;100.00
54600;BME280;40500;51.084;16.958;2023-04-16T03:04:54;100120.90;;;5.96;100.00
54600;BME280;40500;51.084;16.958;2023-04-16T03:07:26;100128.36;;;5.93;100.00
54600;BME280;40500;51.084;16.958;2023-04-16T03:09:57;100132.18;;;5.91;100.00
54600;BME280;40500;51.084;16.958;2023-04-16T03:12:27;100130.10;;;5.88;100.00
54600;BME280;40500;51.084;16.958;2023-04-16T03:14:58;100135.84;;;5.87;100.00
54600;BME280;40500;51.084;16.958;2023-04-16T03:17:28;100140.36;;;5.85;100.00
54600;BME280;40500;51.084;16.958;2023-04-16T03:19:59;100146.45;;;5.81;100.00
54600;BME280;40500;51.084;16.958;2023-04-16T03:22:29;100145.40;;;5.77;100.00
54600;BME280;40500;51.084;16.958;2023-04-16T03:25:00;100146.61;;;5.74;100.00
54600;BME280;40500;51.084;16.958;2023-04-16T03:27:31;100150.61;;;5.74;100.00
54600;BME280;40500;51.084;16.958;2023-04-16T03:30:01;100148.17;;;5.75;100.00
54600;BME280;40500;51.084;16.958;2023-04-16T03:32:33;100150.44;;;5.79;100.00
54600;BME280;40500;51.084;16.958;2023-04-16T03:35:05;100151.66;;;5.81;100.00
54600;BME280;40500;51.084;16.958;2023-04-16T03:37:36;100157.39;;;5.82;100.00
54600;BME280;40500;51.084;16.958;2023-04-16T03:40:08;100153.57;;;5.83;100.00
54600;BME280;40500;51.084;16.958;2023-04-16T03:42:39;100158.08;;;5.84;100.00
54600;BME280;40500;51.084;16.958;2023-04-16T03:45:10;100163.46;;;5.85;100.00
54600;BME280;40500;51.084;16.958;2023-04-16T03:47:41;100165.73;;;5.85;100.00
54600;BME280;40500;51.084;16.958;2023-04-16T03:50:12;100168.16;;;5.87;100.00
54600;BME280;40500;51.084;16.958;2023-04-16T03:52:42;100168.16;;;5.89;100.00
54600;BME280;40500;51.084;16.958;2023-04-16T03:55:13;100170.77;;;5.92;100.00
54600;BME280;40500;51.084;16.958;2023-04-16T03:57:44;100170.23;;;5.94;100.00
54600;BME280;40500;51.084;16.958;2023-04-16T04:00:16;100175.48;;;5.94;100.00
54600;BME280;40500;51.084;16.958;2023-04-16T04:02:57;100181.20;;;5.94;100.00
54600;BME280;40500;51.084;16.958;2023-04-16T04:05:28;100183.45;;;5.93;100.00
54600;BME280;40500;51.084;16.958;2023-04-16T04:07:59;100186.58;;;5.93;100.00
54600;BME280;40500;51.084;16.958;2023-04-16T04:10:33;100187.45;;;5.94;100.00
54600;BME280;40500;51.084;16.958;2023-04-16T04:13:05;100192.17;;;5.96;100.00
54600;BME280;40500;51.084;16.958;2023-04-16T04:15:36;100195.80;;;5.98;100.00
54600;BME280;40500;51.084;16.958;2023-04-16T04:18:06;100202.59;;;6.00;100.00
54600;BME280;40500;51.084;16.958;2023-04-16T04:20:40;100208.50;;;6.01;100.00
54600;BME280;40500;51.084;16.958;2023-04-16T04:23:11;100215.46;;;6.03;100.00
54600;BME280;40500;51.084;16.958;2023-04-16T04:25:42;100212.33;;;6.05;100.00
54600;BME280;40500;51.084;16.958;2023-04-16T04:28:14;100211.80;;;6.06;100.00
54600;BME280;40500;51.084;16.958;2023-04-16T04:30:44;100212.84;;;6.09;100.00
54600;BME280;40500;51.084;16.958;2023-04-16T04:33:15;100215.10;;;6.11;100.00
54600;BME280;40500;51.084;16.958;2023-04-16T04:35:46;100214.93;;;6.14;100.00
54600;BME280;40500;51.084;16.958;2023-04-16T04:38:16;100221.71;;;6.18;100.00
54600;BME280;40500;51.084;16.958;2023-04-16T04:40:49;100223.61;;;6.21;100.00
54600;BME280;40500;51.084;16.958;2023-04-16T04:43:20;100222.40;;;6.24;100.00
54600;BME280;40500;51.084;16.958;2023-04-16T04:45:51;100224.66;;;6.28;100.00
54600;BME280;40500;51.084;16.958;2023-04-16T04:48:24;100221.88;;;6.31;100.00
54600;BME280;40500;51.084;16.958;2023-04-16T04:50:55;100222.04;;;6.32;100.00
54600;BME280;40500;51.084;16.958;2023-04-16T04:53:26;100219.43;;;6.33;100.00
54600;BME280;40500;51.084;16.958;2023-04-16T04:55:56;100222.39;;;6.33;100.00
54600;BME280;40500;51.084;16.958;2023-04-16T04:58:41;100226.38;;;6.34;100.00
54600;BME280;40500;51.084;16.958;2023-04-16T05:01:11;100224.98;;;6.34;100.00
54600;BME280;40500;51.084;16.958;2023-04-16T05:03:41;100223.60;;;6.36;100.00
54600;BME280;40500;51.084;16.958;2023-04-16T05:06:12;100229.69;;;6.38;100.00
54600;BME280;40500;51.084;16.958;2023-04-16T05:08:42;100227.42;;;6.38;100.00
54600;BME280;40500;51.084;16.958;2023-04-16T05:11:13;100232.63;;;6.39;100.00
54600;BME280;40500;51.084;16.958;2023-04-16T05:13:43;100233.67;;;6.41;100.00
54600;BME280;40500;51.084;16.958;2023-04-16T05:16:13;100234.71;;;6.45;100.00
54600;BME280;40500;51.084;16.958;2023-04-16T05:18:44;100240.61;;;6.52;100.00
54600;BME280;40500;51.084;16.958;2023-04-16T05:21:14;100240.95;;;6.59;100.00
54600;BME280;40500;51.084;16.958;2023-04-16T05:23:44;100252.06;;;6.66;100.00
54600;BME280;40500;51.084;16.958;2023-04-16T05:26:15;100260.60;;;6.69;100.00
54600;BME280;40500;51.084;16.958;2023-04-16T05:28:45;100261.45;;;6.71;100.00
54600;BME280;40500;51.084;16.958;2023-04-16T05:31:16;100263.18;;;6.74;100.00
54600;BME280;40500;51.084;16.958;2023-04-16T05:33:46;100265.08;;;6.82;100.00
54600;BME280;40500;51.084;16.958;2023-04-16T05:36:17;100264.18;;;6.90;100.00
54600;BME280;40500;51.084;16.958;2023-04-16T05:38:47;100267.80;;;6.99;100.00
54600;BME280;40500;51.084;16.958;2023-04-16T05:41:17;100272.30;;;7.10;100.00
54600;BME280;40500;51.084;16.958;2023-04-16T05:43:48;100270.88;;;7.17;100.00
54600;BME280;40500;51.084;16.958;2023-04-16T05:46:18;100273.62;;;7.27;100.00
54600;BME280;40500;51.084;16.958;2023-04-16T05:48:49;100278.27;;;7.36;100.00
54600;BME280;40500;51.084;16.958;2023-04-16T05:51:19;100277.02;;;7.46;100.00
54600;BME280;40500;51.084;16.958;2023-04-16T05:53:51;100283.39;;;7.58;100.00
54600;BME280;40500;51.084;16.958;2023-04-16T05:56:21;100285.98;;;7.63;100.00
54600;BME280;40500;51.084;16.958;2023-04-16T05:58:51;100294.52;;;7.64;100.00
54600;BME280;40500;51.084;16.958;2023-04-16T06:01:22;100299.36;;;7.70;100.00
54600;BME280;40500;51.084;16.958;2023-04-16T06:03:53;100296.69;;;7.78;100.00
54600;BME280;40500;51.084;16.958;2023-04-16T06:06:23;100302.39;;;7.86;100.00
54600;BME280;40500;51.084;16.958;2023-04-16T06:08:55;100305.48;;;7.94;100.00
54600;BME280;40500;51.084;16.958;2023-04-16T06:11:25;100308.04;;;8.04;100.00
54600;BME280;40500;51.084;16.958;2023-04-16T06:13:56;100312.86;;;8.09;100.00
54600;BME280;40500;51.084;16.958;2023-04-16T06:16:27;100316.34;;;8.13;100.00
54600;BME280;40500;51.084;16.958;2023-04-16T06:18:57;100317.86;;;8.18;100.00
54600;BME280;40500;51.084;16.958;2023-04-16T06:21:28;100315.55;;;8.25;100.00
54600;BME280;40500;51.084;16.958;2023-04-16T06:24:00;100321.41;;;8.34;100.00
54600;BME280;40500;51.084;16.958;2023-04-16T06:26:30;100321.72;;;8.43;100.00
54600;BME280;40500;51.084;16.958;2023-04-16T06:29:00;100322.02;;;8.49;100.00
54600;BME280;40500;51.084;16.958;2023-04-16T06:31:31;100323.73;;;8.53;100.00
54600;BME280;40500;51.084;16.958;2023-04-16T06:34:02;100319.58;;;8.48;100.00
54600;BME280;40500;51.084;16.958;2023-04-16T06:36:32;100327.96;;;8.47;100.00
54600;BME280;40500;51.084;16.958;2023-04-16T06:39:02;100329.02;;;8.46;100.00
54600;BME280;40500;51.084;16.958;2023-04-16T06:41:33;100334.09;;;8.45;100.00
54600;BME280;40500;51.084;16.958;2023-04-16T06:44:03;100334.10;;;8.45;100.00
54600;BME280;40500;51.084;16.958;2023-04-16T06:46:34;100336.91;;;8.39;100.00
54600;BME280;40500;51.084;16.958;2023-04-16T06:49:04;100337.08;;;8.38;100.00
54600;BME280;40500;51.084;16.958;2023-04-16T06:51:35;100334.13;;;8.36;100.00
54600;BME280;40500;51.084;16.958;2023-04-16T06:54:06;100336.23;;;8.37;100.00
54600;BME280;40500;51.084;16.958;2023-04-16T06:56:36;100337.98;;;8.37;100.00
54600;BME280;40500;51.084;16.958;2023-04-16T06:59:07;100337.60;;;8.38;100.00
54600;BME280;40500;51.084;16.958;2023-04-16T07:01:38;100334.59;;;8.47;100.00
54600;BME280;40500;51.084;16.958;2023-04-16T07:04:10;100339.52;;;8.62;100.00
54600;BME280;40500;51.084;16.958;2023-04-16T07:06:41;100342.52;;;8.79;100.00
54600;BME280;40500;51.084;16.958;2023-04-16T07:09:11;100346.94;;;8.91;100.00
54600;BME280;40500;51.084;16.958;2023-04-16T07:11:42;100350.02;;;8.98;100.00
54600;BME280;40500;51.084;16.958;2023-04-16T07:14:13;100353.65;;;9.02;100.00
54600;BME280;40500;51.084;16.958;2023-04-16T07:16:44;100359.32;;;9.09;100.00
54600;BME280;40500;51.084;16.958;2023-04-16T07:19:14;100362.73;;;9.18;100.00
54600;BME280;40500;51.084;16.958;2023-04-16T07:21:45;100360.92;;;9.23;100.00
54600;BME280;40500;51.084;16.958;2023-04-16T07:24:15;100362.77;;;9.30;100.00
54600;BME280;40500;51.084;16.958;2023-04-16T07:26:46;100359.92;;;9.36;100.00
54600;BME280;40500;51.084;16.958;2023-04-16T07:29:16;100365.89;;;9.47;100.00
54600;BME280;40500;51.084;16.958;2023-04-16T07:31:48;100367.16;;;9.58;100.00
54600;BME280;40500;51.084;16.958;2023-04-16T07:34:18;100368.77;;;9.70;100.00
54600;BME280;40500;51.084;16.958;2023-04-16T07:36:49;100371.41;;;9.81;100.00
54600;BME280;40500;51.084;16.958;2023-04-16T07:39:20;100375.16;;;9.89;100.00
54600;BME280;40500;51.084;16.958;2023-04-16T07:41:51;100380.16;;;9.94;100.00
54600;BME280;40500;51.084;16.958;2023-04-16T07:44:21;100381.13;;;10.00;100.00
54600;BME280;40500;51.084;16.958;2023-04-16T07:46:51;100380.63;;;10.10;100.00
54600;BME280;40500;51.084;16.958;2023-04-16T07:49:22;100382.26;;;10.19;100.00
54600;BME280;40500;51.084;16.958;2023-04-16T07:51:52;100387.51;;;10.31;100.00
54600;BME280;40500;51.084;16.958;2023-04-16T07:54:23;100388.27;;;10.50;100.00
54600;BME280;40500;51.084;16.958;2023-04-16T07:56:55;100386.02;;;10.50;100.00
54600;BME280;40500;51.084;16.958;2023-04-16T07:59:25;100392.20;;;10.46;100.00
54600;BME280;40500;51.084;16.958;2023-04-16T08:01:56;100397.64;;;10.58;100.00
54600;BME280;40500;51.084;16.958;2023-04-16T08:04:27;100394.31;;;10.78;100.00
54600;BME280;40500;51.084;16.958;2023-04-16T08:06:58;100395.38;;;10.97;100.00
54600;BME280;40500;51.084;16.958;2023-04-16T08:09:28;100391.40;;;11.14;100.00
54600;BME280;40500;51.084;16.958;2023-04-16T08:12:00;100392.05;;;11.26;100.00
54600;BME280;40500;51.084;16.958;2023-04-16T08:14:31;100389.00;;;11.31;100.00
54600;BME280;40500;51.084;16.958;2023-04-16T08:17:01;100386.45;;;11.26;100.00
54600;BME280;40500;51.084;16.958;2023-04-16T08:19:32;100390.91;;;11.13;100.00
54600;BME280;40500;51.084;16.958;2023-04-16T08:22:02;100388.06;;;11.05;100.00
54600;BME280;40500;51.084;16.958;2023-04-16T08:24:33;100388.73;;;11.07;100.00
54600;BME280;40500;51.084;16.958;2023-04-16T08:27:03;100388.65;;;11.11;100.00
54600;BME280;40500;51.084;16.958;2023-04-16T08:29:47;100391.02;;;11.17;100.00
54600;BME280;40500;51.084;16.958;2023-04-16T08:32:17;100389.33;;;11.14;100.00
54600;BME280;40500;51.084;16.958;2023-04-16T08:34:48;100394.98;;;11.20;100.00
54600;BME280;40500;51.084;16.958;2023-04-16T08:37:18;100401.85;;;11.27;100.00
54600;BME280;40500;51.084;16.958;2023-04-16T08:39:48;100403.17;;;11.32;100.00
54600;BME280;40500;51.084;16.958;2023-04-16T08:42:26;100405.88;;;11.36;100.00
54600;BME280;40500;51.084;16.958;2023-04-16T08:45:05;100407.73;;;11.49;100.00
54600;BME280;40500;51.084;16.958;2023-04-16T08:47:37;100404.39;;;11.59;100.00
54600;BME280;40500;51.084;16.958;2023-04-16T08:50:09;100405.04;;;11.62;100.00
54600;BME280;40500;51.084;16.958;2023-04-16T08:52:44;100408.59;;;11.68;100.00
54600;BME280;40500;51.084;16.958;2023-04-16T08:55:17;100411.80;;;11.75;100.00
54600;BME280;40500;51.084;16.958;2023-04-16T08:57:53;100417.37;;;11.85;100.00
54600;BME280;40500;51.084;16.958;2023-04-16T09:00:26;100415.09;;;11.95;100.00
54600;BME280;40500;51.084;16.958;2023-04-16T09:02:58;100415.40;;;11.97;100.00
54600;BME280;40500;51.084;16.958;2023-04-16T09:05:29;100417.41;;;12.01;100.00
54600;BME280;40500;51.084;16.958;2023-04-16T09:08:00;100419.67;;;12.10;100.00
54600;BME280;40500;51.084;16.958;2023-04-16T09:10:30;100416.00;;;12.18;100.00
54600;BME280;40500;51.084;16.958;2023-04-16T09:13:01;100419.41;;;12.22;100.00
54600;BME280;40500;51.084;16.958;2023-04-16T09:15:32;100417.21;;;12.25;100.00
54600;BME280;40500;51.084;16.958;2023-04-16T09:18:03;100416.80;;;12.29;100.00
54600;BME280;40500;51.084;16.958;2023-04-16T09:20:33;100416.66;;;12.27;100.00
54600;BME280;40500;51.084;16.958;2023-04-16T09:23:04;100417.23;;;12.26;100.00
54600;BME280;40500;51.084;16.958;2023-04-16T09:25:35;100417.39;;;12.34;100.00
54600;BME280;40500;51.084;16.958;2023-04-16T09:28:06;100415.99;;;12.41;100.00
54600;BME280;40500;51.084;16.958;2023-04-16T09:30:38;100417.85;;;12.44;100.00
54600;BME280;40500;51.084;16.958;2023-04-16T09:33:18;100419.65;;;12.43;100.00
54600;BME280;40500;51.084;16.958;2023-04-16T09:35:52;100413.87;;;12.49;100.00
54600;BME280;40500;51.084;16.958;2023-04-16T09:38:22;100416.65;;;12.58;100.00
54600;BME280;40500;51.084;16.958;2023-04-16T09:41:07;100414.33;;;12.67;100.00
54600;BME280;40500;51.084;16.958;2023-04-16T09:43:39;100412.88;;;12.76;100.00
54600;BME280;40500;51.084;16.958;2023-04-16T09:46:11;100416.07;;;12.82;100.00
54600;BME280;40500;51.084;16.958;2023-04-16T09:48:41;100419.71;;;12.84;100.00
54600;BME280;40500;51.084;16.958;2023-04-16T09:51:14;100415.70;;;12.82;100.00
54600;BME280;40500;51.084;16.958;2023-04-16T09:53:45;100425.42;;;12.81;100.00
54600;BME280;40500;51.084;16.958;2023-04-16T09:56:16;100422.40;;;12.82;100.00
54600;BME280;40500;51.084;16.958;2023-04-16T09:58:46;100423.95;;;12.83;100.00
54600;BME280;40500;51.084;16.958;2023-04-16T10:01:18;100421.50;;;12.83;100.00
54600;BME280;40500;51.084;16.958;2023-04-16T10:03:51;100421.66;;;12.76;100.00
54600;BME280;40500;51.084;16.958;2023-04-16T10:06:23;100426.46;;;12.74;100.00
54600;BME280;40500;51.084;16.958;2023-04-16T10:08:55;100424.83;;;12.76;100.00
54600;BME280;40500;51.084;16.958;2023-04-16T10:11:26;100429.40;;;12.83;100.00
54600;BME280;40500;51.084;16.958;2023-04-16T10:13:56;100426.64;;;12.88;100.00
54600;BME280;40500;51.084;16.958;2023-04-16T10:16:27;100430.65;;;12.89;100.00
54600;BME280;40500;51.084;16.958;2023-04-16T10:18:59;100427.58;;;12.92;100.00
54600;BME280;40500;51.084;16.958;2023-04-16T10:21:30;100428.70;;;12.97;100.00
54600;BME280;40500;51.084;16.958;2023-04-16T10:24:03;100427.00;;;13.01;100.00
54600;BME280;40500;51.084;16.958;2023-04-16T10:26:34;100425.98;;;13.06;100.00
54600;BME280;40500;51.084;16.958;2023-04-16T10:29:06;100422.49;;;13.13;100.00
54600;BME280;40500;51.084;16.958;2023-04-16T10:31:39;100420.63;;;13.17;100.00
54600;BME280;40500;51.084;16.958;2023-04-16T10:34:10;100425.59;;;13.16;100.00
54600;BME280;40500;51.084;16.958;2023-04-16T10:36:41;100422.95;;;13.15;100.00
54600;BME280;40500;51.084;16.958;2023-04-16T10:39:12;100421.61;;;13.20;100.00
54600;BME280;40500;51.084;16.958;2023-04-16T10:41:47;100421.74;;;13.28;100.00
54600;BME280;40500;51.084;16.958;2023-04-16T10:44:19;100426.05;;;13.39;100.00
54600;BME280;40500;51.084;16.958;2023-04-16T10:46:49;100426.33;;;13.55;100.00
54600;BME280;40500;51.084;16.958;2023-04-16T10:49:22;100424.42;;;13.72;100.00
54600;BME280;40500;51.084;16.958;2023-04-16T10:51:57;100422.90;;;13.89;100.00
54600;BME280;40500;51.084;16.958;2023-04-16T10:54:28;100423.91;;;14.07;100.00
54600;BME280;40500;51.084;16.958;2023-04-16T10:57:02;100423.33;;;14.27;100.00
54600;BME280;40500;51.084;16.958;2023-04-16T10:59:33;100423.34;;;14.44;100.00
54600;BME280;40500;51.084;16.958;2023-04-16T11:02:08;100424.34;;;14.57;100.00
54600;BME280;40500;51.084;16.958;2023-04-16T11:04:44;100423.50;;;14.67;100.00
54600;BME280;40500;51.084;16.958;2023-04-16T11:07:19;100420.84;;;14.73;100.00
54600;BME280;40500;51.084;16.958;2023-04-16T11:09:55;100416.73;;;14.80;100.00
54600;BME280;40500;51.084;16.958;2023-04-16T11:12:35;100420.99;;;14.79;100.00
54600;BME280;40500;51.084;16.958;2023-04-16T11:15:09;100414.00;;;14.78;100.00
54600;BME280;40500;51.084;16.958;2023-04-16T11:17:41;100414.98;;;14.85;100.00
54600;BME280;40500;51.084;16.958;2023-04-16T11:20:18;100414.86;;;14.99;100.00
54600;BME280;40500;51.084;16.958;2023-04-16T11:22:50;100418.45;;;15.08;100.00
54600;BME280;40500;51.084;16.958;2023-04-16T11:25:22;100413.21;;;15.12;100.00
54600;BME280;40500;51.084;16.958;2023-04-16T11:27:53;100412.40;;;15.19;100.00
54600;BME280;40500;51.084;16.958;2023-04-16T11:30:30;100415.91;;;15.20;100.00
54600;BME280;40500;51.084;16.958;2023-04-16T11:33:04;100413.10;;;15.25;100.00
54600;BME280;40500;51.084;16.958;2023-04-16T11:35:34;100414.44;;;15.32;100.00
54600;BME280;40500;51.084;16.958;2023-04-16T11:38:05;100417.42;;;15.42;100.00
54600;BME280;40500;51.084;16.958;2023-04-16T11:40:36;100413.98;;;15.59;100.00
54600;BME280;40500;51.084;16.958;2023-04-16T11:43:14;100410.02;;;15.81;100.00
54600;BME280;40500;51.084;16.958;2023-04-16T11:45:56;100409.88;;;15.99;100.00
54600;BME280;40500;51.084;16.958;2023-04-16T11:48:46;100405.89;;;16.11;100.00
54600;BME280;40500;51.084;16.958;2023-04-16T11:51:17;100404.34;;;16.33;100.00
54600;BME280;40500;51.084;16.958;2023-04-16T11:53:50;100407.25;;;16.40;100.00
54600;BME280;40500;51.084;16.958;2023-04-16T11:56:28;100405.23;;;16.42;100.00
54600;BME280;40500;51.084;16.958;2023-04-16T11:59:08;100408.27;;;16.45;100.00
54600;BME280;40500;51.084;16.958;2023-04-16T12:01:42;100410.70;;;16.55;100.00
54600;BME280;40500;51.084;16.958;2023-04-16T12:04:16;100408.63;;;16.76;100.00
54600;BME280;40500;51.084;16.958;2023-04-16T12:07:04;100413.91;;;16.81;100.00
54600;BME280;40500;51.084;16.958;2023-04-16T12:09:37;100410.41;;;16.89;100.00
54600;BME280;40500;51.084;16.958;2023-04-16T12:12:25;100414.52;;;17.17;100.00
54600;BME280;40500;51.084;16.958;2023-04-16T12:15:00;100411.35;;;17.45;100.00
54600;BME280;40500;51.084;16.958;2023-04-16T12:17:32;100403.46;;;17.63;100.00
54600;BME280;40500;51.084;16.958;2023-04-16T12:20:07;100404.23;;;18.05;100.00
54600;BME280;40500;51.084;16.958;2023-04-16T12:22:39;100405.66;;;18.89;100.00
54600;BME280;40500;51.084;16.958;2023-04-16T12:25:12;100400.92;;;20.60;100.00
54600;BME280;40500;51.084;16.958;2023-04-16T12:27:45;100396.42;;;23.06;100.00
54600;BME280;40500;51.084;16.958;2023-04-16T12:30:19;100388.76;;;25.51;100.00
54600;BME280;40500;51.084;16.958;2023-04-16T12:32:52;100383.34;;;27.40;100.00
54600;BME280;40500;51.084;16.958;2023-04-16T12:35:32;100378.45;;;28.48;100.00
54600;BME280;40500;51.084;16.958;2023-04-16T12:38:03;100380.38;;;29.29;97.78
54600;BME280;40500;51.084;16.958;2023-04-16T12:40:33;100374.05;;;29.68;99.97
54600;BME280;40500;51.084;16.958;2023-04-16T12:43:04;100378.62;;;30.36;95.42
54600;BME280;40500;51.084;16.958;2023-04-16T12:45:34;100378.84;;;30.68;89.32
54600;BME280;40500;51.084;16.958;2023-04-16T12:48:05;100376.84;;;31.36;88.91
54600;BME280;40500;51.084;16.958;2023-04-16T12:50:36;100371.98;;;32.03;85.14
54600;BME280;40500;51.084;16.958;2023-04-16T12:53:07;100368.13;;;33.26;83.71
54600;BME280;40500;51.084;16.958;2023-04-16T12:55:38;100365.62;;;34.83;75.27
54600;BME280;40500;51.084;16.958;2023-04-16T12:58:08;100362.52;;;35.89;72.79